Florence, Indiana
Current Conditions -  °F | °C
As of 11:52 AM on Friday 21 Nov 2014 (Local Time) from KCVG Reporting Station
Clear Clear  
Wind Chill: -5°   Ceiling: Unl
Heat Index: -2°   Visibility: 10mi
Dew Point: -12°   Wind: 5mph
Humidity: 45%   Direction: 140°SE
Pressure: 30.51"   Gusts: NA
Location:  38.78°N, 84.92°W
Report Text: KCVG 211652Z 14004KT 10SM CLR M02/M12 A3051 RMK AO2 SLP341 T10171122
Loading
Personal Weather Stations






























Interactive Weather Map New forecast layout! Learn more

10-Day Weather Forecast

Advertisements
Track Severe Weather on mobile